sensor_id;sensor_type;location;lat;lon;timestamp;P1;durP1;ratioP1;P2;durP2;ratioP2
19675;SDS011;39539;52.202;9.876;2023-11-19T00:01:30;0.60;;;0.60;;
19675;SDS011;39539;52.202;9.876;2023-11-19T00:03:55;0.60;;;0.60;;
19675;SDS011;39539;52.202;9.876;2023-11-19T00:06:21;0.55;;;0.55;;
19675;SDS011;39539;52.202;9.876;2023-11-19T00:08:46;0.65;;;0.65;;
19675;SDS011;39539;52.202;9.876;2023-11-19T00:11:11;0.57;;;0.52;;
19675;SDS011;39539;52.202;9.876;2023-11-19T00:13:40;0.60;;;0.60;;
19675;SDS011;39539;52.202;9.876;2023-11-19T00:16:06;0.73;;;0.73;;
19675;SDS011;39539;52.202;9.876;2023-11-19T00:18:33;0.60;;;0.60;;
19675;SDS011;39539;52.202;9.876;2023-11-19T00:20:59;0.88;;;0.88;;
19675;SDS011;39539;52.202;9.876;2023-11-19T00:23:24;0.60;;;0.60;;
19675;SDS011;39539;52.202;9.876;2023-11-19T00:25:49;0.70;;;0.68;;
19675;SDS011;39539;52.202;9.876;2023-11-19T00:28:14;0.70;;;0.70;;
19675;SDS011;39539;52.202;9.876;2023-11-19T00:30:40;0.70;;;0.70;;
19675;SDS011;39539;52.202;9.876;2023-11-19T00:33:08;0.80;;;0.80;;
19675;SDS011;39539;52.202;9.876;2023-11-19T00:35:33;0.52;;;0.52;;
19675;SDS011;39539;52.202;9.876;2023-11-19T00:37:58;0.60;;;0.60;;
19675;SDS011;39539;52.202;9.876;2023-11-19T00:40:24;0.77;;;0.77;;
19675;SDS011;39539;52.202;9.876;2023-11-19T00:42:52;0.70;;;0.70;;
19675;SDS011;39539;52.202;9.876;2023-11-19T00:45:18;0.70;;;0.70;;
19675;SDS011;39539;52.202;9.876;2023-11-19T00:47:55;0.70;;;0.70;;
19675;SDS011;39539;52.202;9.876;2023-11-19T00:50:21;0.50;;;0.50;;
19675;SDS011;39539;52.202;9.876;2023-11-19T00:52:48;0.68;;;0.68;;
19675;SDS011;39539;52.202;9.876;2023-11-19T00:55:14;0.60;;;0.60;;
19675;SDS011;39539;52.202;9.876;2023-11-19T00:57:40;0.55;;;0.55;;
19675;SDS011;39539;52.202;9.876;2023-11-19T01:00:06;0.60;;;0.60;;
19675;SDS011;39539;52.202;9.876;2023-11-19T01:02:40;0.60;;;0.60;;
19675;SDS011;39539;52.202;9.876;2023-11-19T01:05:07;0.60;;;0.60;;
19675;SDS011;39539;52.202;9.876;2023-11-19T01:07:34;1.95;;;0.65;;
19675;SDS011;39539;52.202;9.876;2023-11-19T01:10:00;0.50;;;0.50;;
19675;SDS011;39539;52.202;9.876;2023-11-19T01:12:25;0.60;;;0.60;;
19675;SDS011;39539;52.202;9.876;2023-11-19T01:14:51;0.50;;;0.50;;
19675;SDS011;39539;52.202;9.876;2023-11-19T01:17:25;0.50;;;0.50;;
19675;SDS011;39539;52.202;9.876;2023-11-19T01:19:50;0.65;;;0.65;;
19675;SDS011;39539;52.202;9.876;2023-11-19T01:22:15;0.70;;;0.70;;
19675;SDS011;39539;52.202;9.876;2023-11-19T01:24:41;0.90;;;0.90;;
19675;SDS011;39539;52.202;9.876;2023-11-19T01:27:06;0.70;;;0.70;;
19675;SDS011;39539;52.202;9.876;2023-11-19T01:29:34;0.70;;;0.70;;
19675;SDS011;39539;52.202;9.876;2023-11-19T01:32:01;0.60;;;0.60;;
19675;SDS011;39539;52.202;9.876;2023-11-19T01:34:26;0.65;;;0.65;;
19675;SDS011;39539;52.202;9.876;2023-11-19T01:36:52;0.70;;;0.70;;
19675;SDS011;39539;52.202;9.876;2023-11-19T01:39:18;0.60;;;0.60;;
19675;SDS011;39539;52.202;9.876;2023-11-19T01:41:44;0.65;;;0.65;;
19675;SDS011;39539;52.202;9.876;2023-11-19T01:44:13;0.60;;;0.60;;
19675;SDS011;39539;52.202;9.876;2023-11-19T01:46:40;0.70;;;0.70;;
19675;SDS011;39539;52.202;9.876;2023-11-19T01:49:10;0.80;;;0.80;;
19675;SDS011;39539;52.202;9.876;2023-11-19T01:51:38;0.60;;;0.60;;
19675;SDS011;39539;52.202;9.876;2023-11-19T01:54:08;0.60;;;0.60;;
19675;SDS011;39539;52.202;9.876;2023-11-19T01:56:34;0.60;;;0.60;;
19675;SDS011;39539;52.202;9.876;2023-11-19T01:59:00;0.60;;;0.60;;
19675;SDS011;39539;52.202;9.876;2023-11-19T02:01:27;0.93;;;0.70;;
19675;SDS011;39539;52.202;9.876;2023-11-19T02:03:52;0.77;;;0.60;;
19675;SDS011;39539;52.202;9.876;2023-11-19T02:06:19;0.57;;;0.57;;
19675;SDS011;39539;52.202;9.876;2023-11-19T02:08:46;0.50;;;0.50;;
19675;SDS011;39539;52.202;9.876;2023-11-19T02:11:14;0.70;;;0.70;;
19675;SDS011;39539;52.202;9.876;2023-11-19T02:13:40;0.52;;;0.52;;
19675;SDS011;39539;52.202;9.876;2023-11-19T02:16:06;0.60;;;0.60;;
19675;SDS011;39539;52.202;9.876;2023-11-19T02:18:33;0.93;;;0.80;;
19675;SDS011;39539;52.202;9.876;2023-11-19T02:20:59;0.85;;;0.60;;
19675;SDS011;39539;52.202;9.876;2023-11-19T02:23:27;1.25;;;0.70;;
19675;SDS011;39539;52.202;9.876;2023-11-19T02:25:59;0.60;;;0.60;;
19675;SDS011;39539;52.202;9.876;2023-11-19T02:28:38;1.05;;;0.50;;
19675;SDS011;39539;52.202;9.876;2023-11-19T02:31:08;0.60;;;0.60;;
19675;SDS011;39539;52.202;9.876;2023-11-19T02:33:39;0.82;;;0.82;;
19675;SDS011;39539;52.202;9.876;2023-11-19T02:36:05;0.57;;;0.57;;
19675;SDS011;39539;52.202;9.876;2023-11-19T02:38:35;0.60;;;0.60;;
19675;SDS011;39539;52.202;9.876;2023-11-19T02:41:03;0.50;;;0.50;;
19675;SDS011;39539;52.202;9.876;2023-11-19T02:43:34;0.73;;;0.52;;
19675;SDS011;39539;52.202;9.876;2023-11-19T02:46:01;0.77;;;0.70;;
19675;SDS011;39539;52.202;9.876;2023-11-19T02:48:28;1.70;;;0.55;;
19675;SDS011;39539;52.202;9.876;2023-11-19T02:50:54;0.60;;;0.60;;
19675;SDS011;39539;52.202;9.876;2023-11-19T02:53:22;0.60;;;0.60;;
19675;SDS011;39539;52.202;9.876;2023-11-19T02:55:48;0.60;;;0.60;;
19675;SDS011;39539;52.202;9.876;2023-11-19T03:01:36;0.98;;;0.60;;
19675;SDS011;39539;52.202;9.876;2023-11-19T03:04:02;0.45;;;0.45;;
19675;SDS011;39539;52.202;9.876;2023-11-19T03:06:35;0.40;;;0.40;;
19675;SDS011;39539;52.202;9.876;2023-11-19T03:09:00;1.05;;;0.50;;
19675;SDS011;39539;52.202;9.876;2023-11-19T03:11:31;0.77;;;0.63;;
19675;SDS011;39539;52.202;9.876;2023-11-19T03:13:58;0.50;;;0.50;;
19675;SDS011;39539;52.202;9.876;2023-11-19T03:16:24;0.60;;;0.60;;
19675;SDS011;39539;52.202;9.876;2023-11-19T03:18:49;0.70;;;0.70;;
19675;SDS011;39539;52.202;9.876;2023-11-19T03:21:15;0.60;;;0.60;;
19675;SDS011;39539;52.202;9.876;2023-11-19T03:23:40;0.82;;;0.80;;
19675;SDS011;39539;52.202;9.876;2023-11-19T03:26:06;1.58;;;0.70;;
19675;SDS011;39539;52.202;9.876;2023-11-19T03:28:31;0.73;;;0.70;;
19675;SDS011;39539;52.202;9.876;2023-11-19T03:30:58;0.90;;;0.70;;
19675;SDS011;39539;52.202;9.876;2023-11-19T03:33:23;1.60;;;0.80;;
19675;SDS011;39539;52.202;9.876;2023-11-19T03:35:50;0.70;;;0.70;;
19675;SDS011;39539;52.202;9.876;2023-11-19T03:38:17;0.80;;;0.80;;
19675;SDS011;39539;52.202;9.876;2023-11-19T03:40:42;0.68;;;0.68;;
19675;SDS011;39539;52.202;9.876;2023-11-19T03:43:10;0.77;;;0.77;;
19675;SDS011;39539;52.202;9.876;2023-11-19T03:45:40;0.77;;;0.77;;
19675;SDS011;39539;52.202;9.876;2023-11-19T03:48:05;0.75;;;0.75;;
19675;SDS011;39539;52.202;9.876;2023-11-19T03:50:32;0.60;;;0.60;;
19675;SDS011;39539;52.202;9.876;2023-11-19T03:52:58;0.90;;;0.90;;
19675;SDS011;39539;52.202;9.876;2023-11-19T03:55:24;1.08;;;1.08;;
19675;SDS011;39539;52.202;9.876;2023-11-19T03:57:49;0.70;;;0.70;;
19675;SDS011;39539;52.202;9.876;2023-11-19T04:00:16;0.70;;;0.70;;
19675;SDS011;39539;52.202;9.876;2023-11-19T04:02:42;0.90;;;0.90;;
19675;SDS011;39539;52.202;9.876;2023-11-19T04:05:08;0.90;;;0.90;;
19675;SDS011;39539;52.202;9.876;2023-11-19T04:07:37;0.93;;;0.93;;
19675;SDS011;39539;52.202;9.876;2023-11-19T04:10:03;1.23;;;1.13;;
19675;SDS011;39539;52.202;9.876;2023-11-19T04:12:31;1.33;;;1.08;;
19675;SDS011;39539;52.202;9.876;2023-11-19T04:14:57;1.27;;;1.23;;
19675;SDS011;39539;52.202;9.876;2023-11-19T04:17:22;1.92;;;1.70;;
19675;SDS011;39539;52.202;9.876;2023-11-19T04:19:49;1.80;;;1.70;;
19675;SDS011;39539;52.202;9.876;2023-11-19T04:22:16;1.83;;;1.73;;
19675;SDS011;39539;52.202;9.876;2023-11-19T04:24:41;2.55;;;1.83;;
19675;SDS011;39539;52.202;9.876;2023-11-19T04:27:09;1.92;;;1.83;;
19675;SDS011;39539;52.202;9.876;2023-11-19T04:29:34;2.28;;;2.08;;
19675;SDS011;39539;52.202;9.876;2023-11-19T04:31:59;2.30;;;2.20;;
19675;SDS011;39539;52.202;9.876;2023-11-19T04:34:26;2.20;;;2.10;;
19675;SDS011;39539;52.202;9.876;2023-11-19T04:36:51;2.30;;;2.20;;
19675;SDS011;39539;52.202;9.876;2023-11-19T04:39:16;2.88;;;2.58;;
19675;SDS011;39539;52.202;9.876;2023-11-19T04:41:50;3.15;;;2.95;;
19675;SDS011;39539;52.202;9.876;2023-11-19T04:44:19;3.25;;;3.05;;
19675;SDS011;39539;52.202;9.876;2023-11-19T04:46:44;4.18;;;3.78;;
19675;SDS011;39539;52.202;9.876;2023-11-19T04:49:11;3.80;;;3.50;;
19675;SDS011;39539;52.202;9.876;2023-11-19T04:51:39;3.40;;;3.20;;
19675;SDS011;39539;52.202;9.876;2023-11-19T04:54:11;3.45;;;3.15;;
19675;SDS011;39539;52.202;9.876;2023-11-19T04:56:36;5.57;;;3.50;;
19675;SDS011;39539;52.202;9.876;2023-11-19T04:59:02;3.47;;;3.25;;
19675;SDS011;39539;52.202;9.876;2023-11-19T05:01:28;3.53;;;3.22;;
19675;SDS011;39539;52.202;9.876;2023-11-19T05:03:53;3.30;;;3.10;;
19675;SDS011;39539;52.202;9.876;2023-11-19T05:06:19;3.22;;;2.92;;
19675;SDS011;39539;52.202;9.876;2023-11-19T05:08:44;3.05;;;2.80;;
19675;SDS011;39539;52.202;9.876;2023-11-19T05:11:11;3.60;;;3.30;;
19675;SDS011;39539;52.202;9.876;2023-11-19T05:13:38;3.67;;;3.40;;
19675;SDS011;39539;52.202;9.876;2023-11-19T05:16:04;3.53;;;3.22;;
19675;SDS011;39539;52.202;9.876;2023-11-19T05:18:29;5.07;;;3.53;;
19675;SDS011;39539;52.202;9.876;2023-11-19T05:20:55;5.47;;;3.90;;
19675;SDS011;39539;52.202;9.876;2023-11-19T05:23:21;5.20;;;4.10;;
19675;SDS011;39539;52.202;9.876;2023-11-19T05:25:48;4.00;;;3.60;;
19675;SDS011;39539;52.202;9.876;2023-11-19T05:28:13;4.15;;;3.85;;
19675;SDS011;39539;52.202;9.876;2023-11-19T05:30:39;3.92;;;3.45;;
19675;SDS011;39539;52.202;9.876;2023-11-19T05:33:05;3.05;;;2.83;;
19675;SDS011;39539;52.202;9.876;2023-11-19T05:35:34;3.72;;;3.38;;
19675;SDS011;39539;52.202;9.876;2023-11-19T05:37:59;4.05;;;3.50;;
19675;SDS011;39539;52.202;9.876;2023-11-19T05:40:24;3.40;;;3.17;;
19675;SDS011;39539;52.202;9.876;2023-11-19T05:42:59;4.00;;;3.58;;
19675;SDS011;39539;52.202;9.876;2023-11-19T05:45:26;3.45;;;3.25;;
19675;SDS011;39539;52.202;9.876;2023-11-19T05:47:51;3.90;;;3.50;;
19675;SDS011;39539;52.202;9.876;2023-11-19T05:50:17;3.75;;;3.45;;
19675;SDS011;39539;52.202;9.876;2023-11-19T05:52:46;3.95;;;3.45;;
19675;SDS011;39539;52.202;9.876;2023-11-19T05:55:11;4.10;;;3.70;;
19675;SDS011;39539;52.202;9.876;2023-11-19T05:57:37;5.72;;;3.47;;
19675;SDS011;39539;52.202;9.876;2023-11-19T06:00:05;4.30;;;3.78;;
19675;SDS011;39539;52.202;9.876;2023-11-19T06:02:32;3.80;;;3.50;;
19675;SDS011;39539;52.202;9.876;2023-11-19T06:05:00;3.85;;;3.50;;
19675;SDS011;39539;52.202;9.876;2023-11-19T06:07:27;5.88;;;3.88;;
19675;SDS011;39539;52.202;9.876;2023-11-19T06:09:53;4.78;;;3.50;;
19675;SDS011;39539;52.202;9.876;2023-11-19T06:12:18;4.07;;;3.67;;
19675;SDS011;39539;52.202;9.876;2023-11-19T06:14:45;4.90;;;4.40;;
19675;SDS011;39539;52.202;9.876;2023-11-19T06:17:20;5.78;;;5.28;;
19675;SDS011;39539;52.202;9.876;2023-11-19T06:19:46;8.52;;;7.53;;
19675;SDS011;39539;52.202;9.876;2023-11-19T06:22:11;9.48;;;7.63;;
19675;SDS011;39539;52.202;9.876;2023-11-19T06:24:37;9.30;;;8.23;;
19675;SDS011;39539;52.202;9.876;2023-11-19T06:27:02;8.93;;;8.00;;
19675;SDS011;39539;52.202;9.876;2023-11-19T06:29:29;10.82;;;7.78;;
19675;SDS011;39539;52.202;9.876;2023-11-19T06:31:58;9.48;;;6.78;;
19675;SDS011;39539;52.202;9.876;2023-11-19T06:34:23;9.80;;;6.32;;
19675;SDS011;39539;52.202;9.876;2023-11-19T06:36:50;11.70;;;7.05;;
19675;SDS011;39539;52.202;9.876;2023-11-19T06:39:16;9.65;;;6.18;;
19675;SDS011;39539;52.202;9.876;2023-11-19T06:41:49;11.18;;;6.20;;
19675;SDS011;39539;52.202;9.876;2023-11-19T06:44:15;9.18;;;6.22;;
19675;SDS011;39539;52.202;9.876;2023-11-19T06:46:41;9.77;;;6.22;;
19675;SDS011;39539;52.202;9.876;2023-11-19T06:49:06;15.00;;;5.88;;
19675;SDS011;39539;52.202;9.876;2023-11-19T06:51:34;13.60;;;5.80;;
19675;SDS011;39539;52.202;9.876;2023-11-19T06:53:59;12.90;;;5.68;;
19675;SDS011;39539;52.202;9.876;2023-11-19T06:56:25;8.18;;;5.20;;
19675;SDS011;39539;52.202;9.876;2023-11-19T06:58:50;8.48;;;4.85;;
19675;SDS011;39539;52.202;9.876;2023-11-19T07:01:16;9.13;;;5.18;;
19675;SDS011;39539;52.202;9.876;2023-11-19T07:03:44;10.40;;;5.43;;
19675;SDS011;39539;52.202;9.876;2023-11-19T07:06:16;9.32;;;5.07;;
19675;SDS011;39539;52.202;9.876;2023-11-19T07:08:42;11.13;;;5.32;;
19675;SDS011;39539;52.202;9.876;2023-11-19T07:11:11;8.73;;;5.15;;
19675;SDS011;39539;52.202;9.876;2023-11-19T07:13:37;11.68;;;5.28;;
19675;SDS011;39539;52.202;9.876;2023-11-19T07:16:03;8.55;;;5.20;;
19675;SDS011;39539;52.202;9.876;2023-11-19T07:18:29;9.85;;;4.85;;
19675;SDS011;39539;52.202;9.876;2023-11-19T07:20:57;8.50;;;4.93;;
19675;SDS011;39539;52.202;9.876;2023-11-19T07:23:25;10.10;;;5.00;;
19675;SDS011;39539;52.202;9.876;2023-11-19T07:25:52;9.00;;;5.40;;
19675;SDS011;39539;52.202;9.876;2023-11-19T07:28:18;11.93;;;5.07;;
19675;SDS011;39539;52.202;9.876;2023-11-19T07:30:53;8.13;;;5.30;;
19675;SDS011;39539;52.202;9.876;2023-11-19T07:33:21;8.13;;;4.45;;
19675;SDS011;39539;52.202;9.876;2023-11-19T07:35:46;12.10;;;5.72;;
19675;SDS011;39539;52.202;9.876;2023-11-19T07:38:11;11.77;;;5.25;;
19675;SDS011;39539;52.202;9.876;2023-11-19T07:40:46;8.02;;;4.60;;
19675;SDS011;39539;52.202;9.876;2023-11-19T07:43:12;11.10;;;4.70;;
19675;SDS011;39539;52.202;9.876;2023-11-19T07:45:37;8.93;;;4.72;;
19675;SDS011;39539;52.202;9.876;2023-11-19T07:48:04;10.32;;;4.78;;
19675;SDS011;39539;52.202;9.876;2023-11-19T07:50:31;7.95;;;3.90;;
19675;SDS011;39539;52.202;9.876;2023-11-19T07:52:56;9.30;;;4.72;;
19675;SDS011;39539;52.202;9.876;2023-11-19T07:55:22;9.35;;;4.30;;
19675;SDS011;39539;52.202;9.876;2023-11-19T07:57:47;13.15;;;4.50;;
19675;SDS011;39539;52.202;9.876;2023-11-19T08:00:14;9.43;;;4.85;;
19675;SDS011;39539;52.202;9.876;2023-11-19T08:02:40;11.65;;;4.90;;
19675;SDS011;39539;52.202;9.876;2023-11-19T08:05:06;12.27;;;4.72;;
19675;SDS011;39539;52.202;9.876;2023-11-19T08:07:31;13.57;;;5.25;;
19675;SDS011;39539;52.202;9.876;2023-11-19T08:09:58;8.57;;;4.05;;
19675;SDS011;39539;52.202;9.876;2023-11-19T08:12:25;14.60;;;5.32;;
19675;SDS011;39539;52.202;9.876;2023-11-19T08:14:56;10.90;;;5.18;;
19675;SDS011;39539;52.202;9.876;2023-11-19T08:17:23;11.75;;;5.53;;
19675;SDS011;39539;52.202;9.876;2023-11-19T08:19:49;11.50;;;4.80;;
19675;SDS011;39539;52.202;9.876;2023-11-19T08:22:16;12.50;;;5.35;;
19675;SDS011;39539;52.202;9.876;2023-11-19T08:24:44;11.75;;;4.90;;
19675;SDS011;39539;52.202;9.876;2023-11-19T08:27:10;14.07;;;5.70;;
19675;SDS011;39539;52.202;9.876;2023-11-19T08:29:37;12.95;;;5.70;;
19675;SDS011;39539;52.202;9.876;2023-11-19T08:32:04;12.68;;;4.97;;
19675;SDS011;39539;52.202;9.876;2023-11-19T08:34:29;12.07;;;5.03;;
19675;SDS011;39539;52.202;9.876;2023-11-19T08:36:55;11.05;;;5.45;;
19675;SDS011;39539;52.202;9.876;2023-11-19T08:39:21;12.23;;;4.93;;
19675;SDS011;39539;52.202;9.876;2023-11-19T08:41:47;13.07;;;5.22;;
19675;SDS011;39539;52.202;9.876;2023-11-19T08:44:12;16.15;;;6.03;;
19675;SDS011;39539;52.202;9.876;2023-11-19T08:46:38;12.90;;;5.63;;
19675;SDS011;39539;52.202;9.876;2023-11-19T08:49:04;15.35;;;5.55;;
19675;SDS011;39539;52.202;9.876;2023-11-19T08:51:30;13.65;;;5.15;;
19675;SDS011;39539;52.202;9.876;2023-11-19T08:53:56;11.65;;;5.75;;
19675;SDS011;39539;52.202;9.876;2023-11-19T08:56:22;15.55;;;5.93;;
19675;SDS011;39539;52.202;9.876;2023-11-19T08:58:53;12.80;;;5.65;;
19675;SDS011;39539;52.202;9.876;2023-11-19T09:01:18;14.32;;;5.75;;
19675;SDS011;39539;52.202;9.876;2023-11-19T09:03:43;14.02;;;5.72;;
19675;SDS011;39539;52.202;9.876;2023-11-19T09:06:09;16.58;;;6.53;;
19675;SDS011;39539;52.202;9.876;2023-11-19T09:08:43;12.70;;;5.65;;
19675;SDS011;39539;52.202;9.876;2023-11-19T09:11:09;13.57;;;6.00;;
19675;SDS011;39539;52.202;9.876;2023-11-19T09:13:35;13.32;;;5.90;;
19675;SDS011;39539;52.202;9.876;2023-11-19T09:16:00;11.18;;;5.25;;
19675;SDS011;39539;52.202;9.876;2023-11-19T09:18:29;15.38;;;6.95;;
19675;SDS011;39539;52.202;9.876;2023-11-19T09:20:55;17.15;;;6.50;;
19675;SDS011;39539;52.202;9.876;2023-11-19T09:23:20;18.52;;;6.55;;
19675;SDS011;39539;52.202;9.876;2023-11-19T09:25:45;15.32;;;6.43;;
19675;SDS011;39539;52.202;9.876;2023-11-19T09:28:11;18.35;;;5.75;;
19675;SDS011;39539;52.202;9.876;2023-11-19T09:30:36;14.45;;;5.63;;
19675;SDS011;39539;52.202;9.876;2023-11-19T09:33:01;12.38;;;6.38;;
19675;SDS011;39539;52.202;9.876;2023-11-19T09:35:27;16.20;;;6.20;;
19675;SDS011;39539;52.202;9.876;2023-11-19T09:37:52;14.30;;;5.78;;
19675;SDS011;39539;52.202;9.876;2023-11-19T09:40:19;16.45;;;6.53;;
19675;SDS011;39539;52.202;9.876;2023-11-19T09:42:45;17.02;;;6.50;;
19675;SDS011;39539;52.202;9.876;2023-11-19T09:45:15;14.27;;;5.25;;
19675;SDS011;39539;52.202;9.876;2023-11-19T09:47:43;20.90;;;6.95;;
19675;SDS011;39539;52.202;9.876;2023-11-19T09:50:19;16.77;;;5.90;;
19675;SDS011;39539;52.202;9.876;2023-11-19T09:52:45;16.35;;;5.88;;
19675;SDS011;39539;52.202;9.876;2023-11-19T09:55:12;17.65;;;5.88;;
19675;SDS011;39539;52.202;9.876;2023-11-19T09:57:40;13.63;;;5.72;;
19675;SDS011;39539;52.202;9.876;2023-11-19T10:00:07;18.45;;;6.72;;
19675;SDS011;39539;52.202;9.876;2023-11-19T10:02:35;20.13;;;6.22;;
19675;SDS011;39539;52.202;9.876;2023-11-19T10:05:05;12.77;;;5.70;;
19675;SDS011;39539;52.202;9.876;2023-11-19T10:07:32;12.70;;;5.60;;
19675;SDS011;39539;52.202;9.876;2023-11-19T10:10:02;17.05;;;5.43;;
19675;SDS011;39539;52.202;9.876;2023-11-19T10:12:32;17.33;;;5.75;;
19675;SDS011;39539;52.202;9.876;2023-11-19T10:14:58;14.73;;;5.38;;
19675;SDS011;39539;52.202;9.876;2023-11-19T10:17:27;15.35;;;6.20;;
19675;SDS011;39539;52.202;9.876;2023-11-19T10:19:54;16.55;;;5.70;;
19675;SDS011;39539;52.202;9.876;2023-11-19T10:22:20;14.18;;;5.43;;
19675;SDS011;39539;52.202;9.876;2023-11-19T10:24:47;12.00;;;4.95;;
19675;SDS011;39539;52.202;9.876;2023-11-19T10:27:18;12.73;;;5.10;;
19675;SDS011;39539;52.202;9.876;2023-11-19T10:29:46;13.40;;;5.18;;
19675;SDS011;39539;52.202;9.876;2023-11-19T10:32:31;13.85;;;5.60;;
19675;SDS011;39539;52.202;9.876;2023-11-19T10:35:10;10.63;;;5.15;;
19675;SDS011;39539;52.202;9.876;2023-11-19T10:37:39;11.48;;;5.05;;
19675;SDS011;39539;52.202;9.876;2023-11-19T10:40:06;12.50;;;4.78;;
19675;SDS011;39539;52.202;9.876;2023-11-19T10:42:35;13.82;;;6.03;;
19675;SDS011;39539;52.202;9.876;2023-11-19T10:45:02;12.57;;;5.18;;
19675;SDS011;39539;52.202;9.876;2023-11-19T10:47:29;15.68;;;5.35;;
19675;SDS011;39539;52.202;9.876;2023-11-19T10:49:55;14.80;;;5.90;;
19675;SDS011;39539;52.202;9.876;2023-11-19T10:52:21;15.45;;;5.85;;
19675;SDS011;39539;52.202;9.876;2023-11-19T10:54:49;18.70;;;5.95;;
19675;SDS011;39539;52.202;9.876;2023-11-19T10:57:19;15.25;;;6.25;;
19675;SDS011;39539;52.202;9.876;2023-11-19T10:59:51;12.52;;;5.90;;
19675;SDS011;39539;52.202;9.876;2023-11-19T11:02:21;13.32;;;5.68;;
19675;SDS011;39539;52.202;9.876;2023-11-19T11:04:59;12.25;;;5.55;;
19675;SDS011;39539;52.202;9.876;2023-11-19T11:07:25;13.48;;;5.30;;
19675;SDS011;39539;52.202;9.876;2023-11-19T11:09:51;15.60;;;6.25;;
19675;SDS011;39539;52.202;9.876;2023-11-19T11:12:18;12.50;;;6.20;;
19675;SDS011;39539;52.202;9.876;2023-11-19T11:14:48;17.60;;;6.10;;
19675;SDS011;39539;52.202;9.876;2023-11-19T11:17:15;17.85;;;6.20;;
19675;SDS011;39539;52.202;9.876;2023-11-19T11:19:43;15.15;;;6.50;;
19675;SDS011;39539;52.202;9.876;2023-11-19T11:22:09;13.52;;;6.60;;
19675;SDS011;39539;52.202;9.876;2023-11-19T11:24:56;17.38;;;6.38;;
19675;SDS011;39539;52.202;9.876;2023-11-19T11:30:37;14.23;;;5.93;;
19675;SDS011;39539;52.202;9.876;2023-11-19T11:33:53;25.67;;;6.65;;
19675;SDS011;39539;52.202;9.876;2023-11-19T11:36:22;10.85;;;5.43;;
19675;SDS011;39539;52.202;9.876;2023-11-19T11:38:49;17.00;;;6.07;;
19675;SDS011;39539;52.202;9.876;2023-11-19T11:41:22;15.48;;;5.88;;
19675;SDS011;39539;52.202;9.876;2023-11-19T11:43:50;13.27;;;6.13;;
19675;SDS011;39539;52.202;9.876;2023-11-19T11:49:05;17.42;;;6.25;;
19675;SDS011;39539;52.202;9.876;2023-11-19T11:57:06;21.50;;;6.60;;
19675;SDS011;39539;52.202;9.876;2023-11-19T11:59:51;14.48;;;5.82;;
19675;SDS011;39539;52.202;9.876;2023-11-19T12:02:19;18.70;;;6.57;;
19675;SDS011;39539;52.202;9.876;2023-11-19T12:04:48;17.35;;;5.40;;
19675;SDS011;39539;52.202;9.876;2023-11-19T12:07:17;18.90;;;6.00;;
19675;SDS011;39539;52.202;9.876;2023-11-19T12:09:52;14.05;;;5.65;;
19675;SDS011;39539;52.202;9.876;2023-11-19T12:12:26;15.73;;;5.55;;
19675;SDS011;39539;52.202;9.876;2023-11-19T12:20:02;20.63;;;6.88;;
19675;SDS011;39539;52.202;9.876;2023-11-19T12:22:31;14.63;;;6.20;;
19675;SDS011;39539;52.202;9.876;2023-11-19T12:24:56;13.63;;;6.15;;
19675;SDS011;39539;52.202;9.876;2023-11-19T12:27:22;19.45;;;6.22;;
19675;SDS011;39539;52.202;9.876;2023-11-19T12:29:48;15.23;;;6.00;;
19675;SDS011;39539;52.202;9.876;2023-11-19T12:32:13;13.48;;;5.97;;
19675;SDS011;39539;52.202;9.876;2023-11-19T12:34:40;14.18;;;6.28;;
19675;SDS011;39539;52.202;9.876;2023-11-19T12:37:06;16.02;;;5.65;;
19675;SDS011;39539;52.202;9.876;2023-11-19T12:39:32;14.07;;;5.15;;
19675;SDS011;39539;52.202;9.876;2023-11-19T12:41:57;18.38;;;6.55;;
19675;SDS011;39539;52.202;9.876;2023-11-19T12:44:26;12.77;;;5.53;;
19675;SDS011;39539;52.202;9.876;2023-11-19T12:47:08;14.57;;;5.30;;
19675;SDS011;39539;52.202;9.876;2023-11-19T12:49:36;17.90;;;5.88;;
19675;SDS011;39539;52.202;9.876;2023-11-19T12:52:01;17.13;;;5.82;;
19675;SDS011;39539;52.202;9.876;2023-11-19T12:54:36;12.57;;;5.30;;
19675;SDS011;39539;52.202;9.876;2023-11-19T12:57:02;17.38;;;5.90;;
19675;SDS011;39539;52.202;9.876;2023-11-19T12:59:28;12.75;;;5.70;;
19675;SDS011;39539;52.202;9.876;2023-11-19T13:01:57;15.98;;;5.47;;
19675;SDS011;39539;52.202;9.876;2023-11-19T13:04:23;20.00;;;5.88;;
19675;SDS011;39539;52.202;9.876;2023-11-19T13:06:55;12.95;;;5.72;;
19675;SDS011;39539;52.202;9.876;2023-11-19T13:09:28;10.80;;;5.38;;
19675;SDS011;39539;52.202;9.876;2023-11-19T13:11:54;13.07;;;5.40;;
19675;SDS011;39539;52.202;9.876;2023-11-19T13:14:21;12.93;;;5.60;;
19675;SDS011;39539;52.202;9.876;2023-11-19T13:16:48;14.00;;;5.75;;
19675;SDS011;39539;52.202;9.876;2023-11-19T13:19:14;15.35;;;6.10;;
19675;SDS011;39539;52.202;9.876;2023-11-19T13:21:47;12.63;;;5.57;;
19675;SDS011;39539;52.202;9.876;2023-11-19T13:24:13;13.45;;;6.15;;
19675;SDS011;39539;52.202;9.876;2023-11-19T13:26:39;13.18;;;5.82;;
19675;SDS011;39539;52.202;9.876;2023-11-19T13:29:05;15.50;;;6.15;;
19675;SDS011;39539;52.202;9.876;2023-11-19T13:31:31;16.30;;;5.78;;
19675;SDS011;39539;52.202;9.876;2023-11-19T13:33:56;14.60;;;6.00;;
19675;SDS011;39539;52.202;9.876;2023-11-19T13:36:26;16.73;;;6.65;;
19675;SDS011;39539;52.202;9.876;2023-11-19T13:38:56;15.25;;;6.10;;
19675;SDS011;39539;52.202;9.876;2023-11-19T13:41:25;14.77;;;6.05;;
19675;SDS011;39539;52.202;9.876;2023-11-19T13:44:03;13.52;;;5.32;;
19675;SDS011;39539;52.202;9.876;2023-11-19T13:46:29;13.50;;;5.95;;
19675;SDS011;39539;52.202;9.876;2023-11-19T13:48:58;14.73;;;5.63;;
19675;SDS011;39539;52.202;9.876;2023-11-19T13:51:23;13.20;;;6.03;;
19675;SDS011;39539;52.202;9.876;2023-11-19T13:53:52;13.68;;;5.60;;
19675;SDS011;39539;52.202;9.876;2023-11-19T13:56:17;15.73;;;6.40;;
19675;SDS011;39539;52.202;9.876;2023-11-19T13:58:46;20.92;;;7.55;;
19675;SDS011;39539;52.202;9.876;2023-11-19T14:01:12;12.00;;;6.20;;
19675;SDS011;39539;52.202;9.876;2023-11-19T14:03:38;15.00;;;6.25;;
19675;SDS011;39539;52.202;9.876;2023-11-19T14:06:12;15.43;;;5.82;;
19675;SDS011;39539;52.202;9.876;2023-11-19T14:08:38;19.15;;;6.60;;
19675;SDS011;39539;52.202;9.876;2023-11-19T14:11:05;17.38;;;6.95;;
19675;SDS011;39539;52.202;9.876;2023-11-19T14:13:31;16.55;;;7.03;;
19675;SDS011;39539;52.202;9.876;2023-11-19T14:15:57;18.42;;;6.72;;
19675;SDS011;39539;52.202;9.876;2023-11-19T14:18:24;17.25;;;6.57;;
19675;SDS011;39539;52.202;9.876;2023-11-19T14:20:51;17.80;;;6.55;;
19675;SDS011;39539;52.202;9.876;2023-11-19T14:23:18;18.33;;;6.97;;
19675;SDS011;39539;52.202;9.876;2023-11-19T14:25:43;14.32;;;6.18;;
19675;SDS011;39539;52.202;9.876;2023-11-19T14:28:12;20.83;;;7.32;;
19675;SDS011;39539;52.202;9.876;2023-11-19T14:30:37;13.80;;;7.22;;
19675;SDS011;39539;52.202;9.876;2023-11-19T14:33:15;13.65;;;6.25;;
19675;SDS011;39539;52.202;9.876;2023-11-19T14:35:41;13.13;;;5.65;;
19675;SDS011;39539;52.202;9.876;2023-11-19T14:38:06;12.30;;;5.70;;
19675;SDS011;39539;52.202;9.876;2023-11-19T14:40:37;16.35;;;5.85;;
19675;SDS011;39539;52.202;9.876;2023-11-19T14:43:03;17.45;;;6.25;;
19675;SDS011;39539;52.202;9.876;2023-11-19T14:45:29;18.65;;;6.53;;
19675;SDS011;39539;52.202;9.876;2023-11-19T14:47:54;13.23;;;6.20;;
19675;SDS011;39539;52.202;9.876;2023-11-19T14:50:19;16.73;;;5.97;;
19675;SDS011;39539;52.202;9.876;2023-11-19T14:52:45;16.48;;;6.25;;
19675;SDS011;39539;52.202;9.876;2023-11-19T14:55:10;15.38;;;6.28;;
19675;SDS011;39539;52.202;9.876;2023-11-19T14:57:36;12.93;;;6.47;;
19675;SDS011;39539;52.202;9.876;2023-11-19T15:00:05;12.35;;;6.53;;
19675;SDS011;39539;52.202;9.876;2023-11-19T15:02:38;16.23;;;6.53;;